createdAt,value
2018-07-17T00:01:14.366Z,7.60
2018-07-17T00:03:42.652Z,7.73
2018-07-17T00:06:10.606Z,7.90
2018-07-17T00:08:38.744Z,7.40
2018-07-17T00:11:06.846Z,6.70
2018-07-17T00:13:35.002Z,7.50
2018-07-17T00:16:03.139Z,8.10
2018-07-17T00:18:31.311Z,7.37
2018-07-17T00:20:59.488Z,7.20
2018-07-17T00:23:27.607Z,6.80
2018-07-17T00:25:55.898Z,7.50
2018-07-17T00:28:24.043Z,7.50
2018-07-17T00:30:52.168Z,7.20
2018-07-17T00:33:20.285Z,8.17
2018-07-17T00:35:48.426Z,7.70
2018-07-17T00:38:16.631Z,7.67
2018-07-17T00:40:44.756Z,7.80
2018-07-17T00:43:12.912Z,7.50
2018-07-17T00:45:41.084Z,8.53
2018-07-17T00:48:09.202Z,7.23
2018-07-17T00:50:37.341Z,7.30
2018-07-17T00:53:05.540Z,8.33
2018-07-17T00:55:33.850Z,7.23
2018-07-17T00:58:01.966Z,7.30
2018-07-17T01:00:35.694Z,7.97
2018-07-17T01:03:09.287Z,7.10
2018-07-17T01:05:42.623Z,9.03
2018-07-17T01:08:16.341Z,8.20
2018-07-17T01:10:49.832Z,7.80
2018-07-17T01:13:21.971Z,7.43
2018-07-17T01:15:50.090Z,7.60
2018-07-17T01:18:18.218Z,8.60
2018-07-17T01:20:46.447Z,7.70
2018-07-17T01:23:14.610Z,7.63
2018-07-17T01:25:42.739Z,7.77
2018-07-17T01:28:10.862Z,8.20
2018-07-17T01:30:39.020Z,8.00
2018-07-17T01:33:07.164Z,8.00
2018-07-17T01:35:35.330Z,7.10
2018-07-17T01:38:03.581Z,8.40
2018-07-17T01:40:31.714Z,7.90
2018-07-17T01:42:59.935Z,7.47
2018-07-17T01:45:28.001Z,8.20
2018-07-17T01:47:56.140Z,8.50
2018-07-17T01:50:24.259Z,7.17
2018-07-17T01:52:52.375Z,7.27
2018-07-17T01:55:20.526Z,7.30
2018-07-17T01:57:48.735Z,8.33
2018-07-17T02:00:16.870Z,8.10
2018-07-17T02:02:45.041Z,7.73
2018-07-17T02:05:13.202Z,8.10
2018-07-17T02:07:41.330Z,8.33
2018-07-17T02:10:09.506Z,7.83
2018-07-17T02:12:37.634Z,8.10
2018-07-17T02:15:05.820Z,8.23
2018-07-17T02:17:33.923Z,8.83
2018-07-17T02:20:02.050Z,8.53
2018-07-17T02:22:30.196Z,8.03
2018-07-17T02:24:58.315Z,8.30
2018-07-17T02:27:26.452Z,8.40
2018-07-17T02:29:54.568Z,8.60
2018-07-17T02:32:22.675Z,7.37
2018-07-17T02:34:50.820Z,8.80
2018-07-17T02:37:18.972Z,8.53
2018-07-17T02:39:47.087Z,8.03
2018-07-17T02:42:15.262Z,8.80
2018-07-17T02:44:43.423Z,9.13
2018-07-17T02:47:11.575Z,8.30
2018-07-17T02:49:39.714Z,8.37
2018-07-17T02:52:07.969Z,8.17
2018-07-17T02:54:36.133Z,8.30
2018-07-17T02:57:05.132Z,8.87
2018-07-17T02:59:33.306Z,7.87
2018-07-17T03:02:01.447Z,7.90
2018-07-17T03:04:29.625Z,8.70
2018-07-17T03:06:57.803Z,8.40
2018-07-17T03:09:25.871Z,8.70
2018-07-17T03:11:53.989Z,8.60
2018-07-17T03:14:22.167Z,8.37
2018-07-17T03:16:50.330Z,8.10
2018-07-17T03:19:18.419Z,8.27
2018-07-17T03:21:46.551Z,7.63
2018-07-17T03:24:14.454Z,8.60
2018-07-17T03:26:42.631Z,7.77
2018-07-17T03:29:10.795Z,8.17
2018-07-17T03:31:38.946Z,8.60
2018-07-17T03:34:07.120Z,8.20
2018-07-17T03:36:35.365Z,8.60
2018-07-17T03:39:04.407Z,8.60
2018-07-17T03:41:32.563Z,7.97
2018-07-17T03:44:01.055Z,9.00
2018-07-17T03:46:29.281Z,8.67
2018-07-17T03:48:57.413Z,8.80
2018-07-17T03:51:25.538Z,9.07
2018-07-17T03:53:53.703Z,8.37
2018-07-17T03:56:21.840Z,8.27
2018-07-17T03:58:49.951Z,8.67
2018-07-17T04:01:18.215Z,8.70
2018-07-17T04:03:46.322Z,8.60
2018-07-17T04:06:14.455Z,8.70
2018-07-17T04:08:42.707Z,8.30
2018-07-17T04:11:10.850Z,9.83
2018-07-17T04:13:38.983Z,8.23
2018-07-17T04:16:07.127Z,8.80
2018-07-17T04:18:35.239Z,9.10
2018-07-17T04:21:03.477Z,8.80
2018-07-17T04:23:31.668Z,8.40
2018-07-17T04:25:59.892Z,9.17
2018-07-17T04:28:27.881Z,8.80
2018-07-17T04:30:56.131Z,8.60
2018-07-17T04:33:24.277Z,8.83
2018-07-17T04:35:52.427Z,8.20
2018-07-17T04:38:20.911Z,8.60
2018-07-17T04:40:48.979Z,8.60
2018-07-17T04:43:17.102Z,7.90
2018-07-17T04:45:45.252Z,9.10
2018-07-17T04:48:14.485Z,9.60
2018-07-17T04:50:42.377Z,8.70
2018-07-17T04:53:10.536Z,8.43
2018-07-17T04:55:39.063Z,8.90
2018-07-17T04:58:07.259Z,8.67
2018-07-17T05:00:35.431Z,9.13
2018-07-17T05:03:03.607Z,8.97
2018-07-17T05:05:31.866Z,9.33
2018-07-17T05:08:00.041Z,9.03
2018-07-17T05:10:28.316Z,8.33
2018-07-17T05:12:56.579Z,8.20
2018-07-17T05:15:24.639Z,7.63
2018-07-17T05:17:52.854Z,8.33
2018-07-17T05:20:21.071Z,8.67
2018-07-17T05:22:49.183Z,8.87
2018-07-17T05:25:17.263Z,8.50
2018-07-17T05:27:45.479Z,9.83
2018-07-17T05:30:13.623Z,8.40
2018-07-17T05:32:41.588Z,8.10
2018-07-17T05:35:09.554Z,9.17
2018-07-17T05:37:37.661Z,9.10
2018-07-17T05:40:06.666Z,9.00
2018-07-17T05:42:35.036Z,8.67
2018-07-17T05:45:03.580Z,9.87
2018-07-17T05:47:31.739Z,8.40
2018-07-17T05:49:59.855Z,9.43
2018-07-17T05:52:28.000Z,9.47
2018-07-17T05:54:56.141Z,9.13
2018-07-17T05:57:24.254Z,9.17
2018-07-17T05:59:52.387Z,8.57
2018-07-17T06:02:20.534Z,8.13
2018-07-17T06:04:48.643Z,9.23
2018-07-17T06:07:16.765Z,8.80
2018-07-17T06:09:44.868Z,8.70
2018-07-17T06:12:13.002Z,9.13
2018-07-17T06:14:41.124Z,9.77
2018-07-17T06:17:09.252Z,9.13
2018-07-17T06:19:37.368Z,10.17
2018-07-17T06:22:05.526Z,8.40
2018-07-17T06:24:33.626Z,8.23
2018-07-17T06:27:01.899Z,8.30
2018-07-17T06:29:30.059Z,8.30
2018-07-17T06:31:58.171Z,9.10
2018-07-17T06:34:26.287Z,8.40
2018-07-17T06:36:54.416Z,8.10
2018-07-17T06:39:22.569Z,8.30
2018-07-17T06:41:51.089Z,8.43
2018-07-17T06:44:19.207Z,7.70
2018-07-17T06:46:47.347Z,8.90
2018-07-17T06:49:15.468Z,8.50
2018-07-17T06:51:43.578Z,7.97
2018-07-17T06:54:11.704Z,8.03
2018-07-17T06:56:39.887Z,8.30
2018-07-17T06:59:08.066Z,8.33
2018-07-17T07:01:36.204Z,8.30
2018-07-17T07:04:04.335Z,8.20
2018-07-17T07:06:32.456Z,7.20
2018-07-17T07:09:00.695Z,7.40
2018-07-17T07:11:29.240Z,7.00
2018-07-17T07:13:57.691Z,7.20
2018-07-17T07:16:25.803Z,7.20
2018-07-17T07:18:53.922Z,6.57
2018-07-17T07:21:22.025Z,7.27
2018-07-17T07:23:50.218Z,7.07
2018-07-17T07:26:18.331Z,7.10
2018-07-17T07:28:46.565Z,7.13
2018-07-17T07:31:14.674Z,7.23
2018-07-17T07:33:42.786Z,6.47
2018-07-17T07:36:10.910Z,5.80
2018-07-17T07:38:39.036Z,6.50
2018-07-17T07:41:07.431Z,5.97
2018-07-17T07:43:35.548Z,6.27
2018-07-17T07:46:03.763Z,6.30
2018-07-17T07:48:32.164Z,5.17
2018-07-17T07:51:00.290Z,5.83
2018-07-17T07:53:28.415Z,5.43
2018-07-17T07:55:56.531Z,5.00
2018-07-17T07:58:24.746Z,5.03
2018-07-17T08:00:52.921Z,4.50
2018-07-17T08:03:21.014Z,4.50
2018-07-17T08:05:49.007Z,4.30
2018-07-17T08:08:17.118Z,4.47
2018-07-17T08:10:45.305Z,5.20
2018-07-17T08:13:13.467Z,6.17
2018-07-17T08:15:41.659Z,5.20
2018-07-17T08:18:09.780Z,5.27
2018-07-17T08:20:38.099Z,4.80
2018-07-17T08:23:06.301Z,5.90
2018-07-17T08:25:34.227Z,4.97
2018-07-17T08:28:02.355Z,5.50
2018-07-17T08:30:30.488Z,4.40
2018-07-17T08:32:58.855Z,5.80
2018-07-17T08:35:26.983Z,5.10
2018-07-17T08:37:55.199Z,4.43
2018-07-17T08:40:23.329Z,4.57
2018-07-17T08:42:51.430Z,4.40
2018-07-17T08:45:19.564Z,5.43
2018-07-17T08:47:47.703Z,6.23
2018-07-17T08:50:15.809Z,4.70
2018-07-17T08:52:44.054Z,5.20
2018-07-17T08:55:12.167Z,3.90
2018-07-17T08:57:40.275Z,4.13
2018-07-17T09:00:08.517Z,5.07
2018-07-17T09:02:36.631Z,4.60
2018-07-17T09:05:04.763Z,4.40
2018-07-17T09:07:32.979Z,4.87
2018-07-17T09:10:02.211Z,3.87
2018-07-17T09:12:30.355Z,4.50
2018-07-17T09:14:58.531Z,3.83
2018-07-17T09:17:26.743Z,3.77
2018-07-17T09:19:54.879Z,4.10
2018-07-17T09:22:23.003Z,4.70
2018-07-17T09:24:51.134Z,3.10
2018-07-17T09:27:19.323Z,4.10
2018-07-17T09:29:47.446Z,4.60
2018-07-17T09:32:15.552Z,4.30
2018-07-17T09:34:43.683Z,3.97
2018-07-17T09:37:11.833Z,3.93
2018-07-17T09:39:39.939Z,3.70
2018-07-17T09:42:08.144Z,3.50
2018-07-17T09:44:36.276Z,3.83
2018-07-17T09:47:04.398Z,3.83
2018-07-17T09:49:33.056Z,3.37
2018-07-17T09:52:01.255Z,6.90
2018-07-17T09:54:29.450Z,4.30
2018-07-17T09:56:57.486Z,2.90
2018-07-17T09:59:25.616Z,3.50
2018-07-17T10:01:59.120Z,3.80
2018-07-17T10:04:27.323Z,3.20
2018-07-17T10:06:55.536Z,3.40
2018-07-17T10:09:23.530Z,3.97
2018-07-17T10:11:51.647Z,3.30
2018-07-17T10:14:19.766Z,3.40
2018-07-17T10:16:47.891Z,3.43
2018-07-17T10:19:16.013Z,3.73
2018-07-17T10:21:44.132Z,4.07
2018-07-17T10:24:12.259Z,4.00
2018-07-17T10:26:41.875Z,3.77
2018-07-17T10:29:09.938Z,3.90
2018-07-17T10:31:38.076Z,3.90
2018-07-17T10:34:06.227Z,3.60
2018-07-17T10:36:34.403Z,3.40
2018-07-17T10:39:02.519Z,3.23
2018-07-17T10:41:30.680Z,3.60
2018-07-17T10:43:58.795Z,3.57
2018-07-17T10:46:26.939Z,4.13
2018-07-17T10:48:55.048Z,3.63
2018-07-17T10:51:23.162Z,3.90
2018-07-17T10:53:51.479Z,3.83
2018-07-17T10:56:19.611Z,3.43
2018-07-17T10:58:47.723Z,3.60
2018-07-17T11:01:15.845Z,3.90
2018-07-17T11:03:43.959Z,3.73
2018-07-17T11:06:12.075Z,4.63
2018-07-17T11:08:40.234Z,3.90
2018-07-17T11:11:08.418Z,4.03
2018-07-17T11:13:36.595Z,3.63
2018-07-17T11:16:05.130Z,3.63
2018-07-17T11:18:33.246Z,3.70
2018-07-17T11:21:01.413Z,6.60
2018-07-17T11:23:29.540Z,3.80
2018-07-17T11:25:57.667Z,3.70
2018-07-17T11:28:26.027Z,3.33
2018-07-17T11:30:54.155Z,3.70
2018-07-17T11:33:22.279Z,4.13
2018-07-17T11:35:50.390Z,3.90
2018-07-17T11:38:18.528Z,3.60
2018-07-17T11:40:46.633Z,3.60
2018-07-17T11:43:14.795Z,3.40
2018-07-17T11:45:42.959Z,3.23
2018-07-17T11:48:11.087Z,3.60
2018-07-17T11:50:39.206Z,3.90
2018-07-17T11:53:07.328Z,3.77
2018-07-17T11:55:35.452Z,3.60
2018-07-17T11:58:03.591Z,3.83
2018-07-17T12:00:31.739Z,4.03
2018-07-17T12:02:59.873Z,4.20
2018-07-17T12:05:28.066Z,3.67
2018-07-17T12:07:56.186Z,3.50
2018-07-17T12:10:24.391Z,3.50
2018-07-17T12:12:52.523Z,3.43
2018-07-17T12:15:20.614Z,3.50
2018-07-17T12:17:48.731Z,3.60
2018-07-17T12:20:16.936Z,3.27
2018-07-17T12:22:44.974Z,4.10
2018-07-17T12:25:13.107Z,3.97
2018-07-17T12:27:41.219Z,3.70
2018-07-17T12:30:09.363Z,3.70
2018-07-17T12:32:37.490Z,3.63
2018-07-17T12:35:05.619Z,3.20
2018-07-17T12:37:33.796Z,3.87
2018-07-17T12:40:01.959Z,3.73
2018-07-17T12:42:30.119Z,3.40
2018-07-17T12:44:58.243Z,3.57
2018-07-17T12:47:26.611Z,3.10
2018-07-17T12:49:54.795Z,3.77
2018-07-17T12:52:22.842Z,3.27
2018-07-17T12:54:50.966Z,3.23
2018-07-17T12:57:19.296Z,3.27
2018-07-17T12:59:47.535Z,3.43
2018-07-17T13:02:15.835Z,3.70
2018-07-17T13:04:44.039Z,3.10
2018-07-17T13:07:12.168Z,3.90
2018-07-17T13:09:40.321Z,3.60
2018-07-17T13:12:08.517Z,3.07
2018-07-17T13:14:39.170Z,3.60
2018-07-17T13:17:07.532Z,3.90
2018-07-17T13:19:35.677Z,3.60
2018-07-17T13:22:03.826Z,3.20
2018-07-17T13:24:31.953Z,3.23
2018-07-17T13:27:00.060Z,3.70
2018-07-17T13:29:28.166Z,3.37
2018-07-17T13:31:56.287Z,3.63
2018-07-17T13:34:24.408Z,3.57
2018-07-17T13:36:52.632Z,3.90
2018-07-17T13:39:20.767Z,3.20
2018-07-17T13:41:48.976Z,3.73
2018-07-17T13:44:17.116Z,3.20
2018-07-17T13:46:45.234Z,3.20
2018-07-17T13:49:13.445Z,3.77
2018-07-17T13:51:41.604Z,4.40
2018-07-17T13:54:09.727Z,4.17
2018-07-17T13:56:37.862Z,4.10
2018-07-17T13:59:06.254Z,3.80
2018-07-17T14:01:34.375Z,3.80
2018-07-17T14:04:02.502Z,4.10
2018-07-17T14:06:30.631Z,4.03
2018-07-17T14:08:58.762Z,3.60
2018-07-17T14:11:26.911Z,3.70
2018-07-17T14:13:55.039Z,4.30
2018-07-17T14:16:23.184Z,3.57
2018-07-17T14:18:51.312Z,4.00
2018-07-17T14:21:19.444Z,3.40
2018-07-17T14:23:47.664Z,3.70
2018-07-17T14:26:15.695Z,2.93
2018-07-17T14:28:44.084Z,2.90
2018-07-17T14:31:12.202Z,3.63
2018-07-17T14:33:40.331Z,3.10
2018-07-17T14:36:08.444Z,3.20
2018-07-17T14:38:36.604Z,3.27
2018-07-17T14:41:04.722Z,3.40
2018-07-17T14:43:32.903Z,3.07
2018-07-17T14:46:01.011Z,3.50
2018-07-17T14:48:29.140Z,3.03
2018-07-17T14:50:57.259Z,3.00
2018-07-17T14:53:25.371Z,3.20
2018-07-17T14:55:53.492Z,3.60
2018-07-17T14:58:21.438Z,3.30
2018-07-17T15:00:49.573Z,4.10
2018-07-17T15:03:17.690Z,3.90
2018-07-17T15:05:45.815Z,3.30
2018-07-17T15:08:13.930Z,3.20
2018-07-17T15:10:42.059Z,3.43
2018-07-17T15:13:10.172Z,4.00
2018-07-17T15:15:38.377Z,4.80
2018-07-17T15:18:06.436Z,3.70
2018-07-17T15:20:34.564Z,3.73
2018-07-17T15:23:02.672Z,3.93
2018-07-17T15:25:30.833Z,4.23
2018-07-17T15:27:58.960Z,3.80
2018-07-17T15:30:27.103Z,3.23
2018-07-17T15:32:55.248Z,3.40
2018-07-17T15:35:23.362Z,3.70
2018-07-17T15:37:51.481Z,3.67
2018-07-17T15:40:19.599Z,3.77
2018-07-17T15:42:54.223Z,3.80
2018-07-17T15:45:22.361Z,3.50
2018-07-17T15:47:50.470Z,4.20
2018-07-17T15:50:18.615Z,3.80
2018-07-17T15:52:46.739Z,4.90
2018-07-17T15:55:14.959Z,5.27
2018-07-17T15:57:43.088Z,3.97
2018-07-17T16:00:11.227Z,4.73
2018-07-17T16:02:39.648Z,4.50
2018-07-17T16:05:07.783Z,4.70
2018-07-17T16:07:36.102Z,4.50
2018-07-17T16:10:04.486Z,3.97
2018-07-17T16:12:32.551Z,3.63
2018-07-17T16:15:00.696Z,4.40
2018-07-17T16:17:28.814Z,4.40
2018-07-17T16:19:57.098Z,4.07
2018-07-17T16:22:25.503Z,4.40
2018-07-17T16:24:53.623Z,5.00
2018-07-17T16:27:22.079Z,4.27
2018-07-17T16:29:50.275Z,4.10
2018-07-17T16:32:18.411Z,3.60
2018-07-17T16:34:46.573Z,4.20
2018-07-17T16:37:14.713Z,4.33
2018-07-17T16:39:42.818Z,4.80
2018-07-17T16:42:11.020Z,4.70
2018-07-17T16:44:39.055Z,4.10
2018-07-17T16:47:07.187Z,4.73
2018-07-17T16:49:35.320Z,4.53
2018-07-17T16:52:03.421Z,4.57
2018-07-17T16:54:31.588Z,4.20
2018-07-17T16:56:59.704Z,4.30
2018-07-17T16:59:27.802Z,4.10
2018-07-17T17:01:55.922Z,4.57
2018-07-17T17:04:24.119Z,4.30
2018-07-17T17:06:52.277Z,4.70
2018-07-17T17:09:20.435Z,4.40
2018-07-17T17:11:48.539Z,4.57
2018-07-17T17:14:16.683Z,4.63
2018-07-17T17:16:44.807Z,4.90
2018-07-17T17:19:12.910Z,4.43
2018-07-17T17:21:41.032Z,4.87
2018-07-17T17:24:09.189Z,4.30
2018-07-17T17:26:39.113Z,5.00
2018-07-17T17:29:07.324Z,4.80
2018-07-17T17:31:35.452Z,4.70
2018-07-17T17:34:03.552Z,4.87
2018-07-17T17:36:31.723Z,5.33
2018-07-17T17:38:59.821Z,5.00
2018-07-17T17:41:27.956Z,4.60
2018-07-17T17:43:56.060Z,4.63
2018-07-17T17:46:24.176Z,4.33
2018-07-17T17:48:52.291Z,5.40
2018-07-17T17:51:20.398Z,4.60
2018-07-17T17:53:48.523Z,4.30
2018-07-17T17:56:16.645Z,4.30
2018-07-17T17:58:44.767Z,4.60
2018-07-17T18:01:12.892Z,4.10
2018-07-17T18:03:40.991Z,4.53
2018-07-17T18:06:09.111Z,4.37
2018-07-17T18:08:37.223Z,4.80
2018-07-17T18:11:05.394Z,4.77
2018-07-17T18:13:33.555Z,4.60
2018-07-17T18:16:01.708Z,4.10
2018-07-17T18:18:29.822Z,4.80
2018-07-17T18:20:57.984Z,4.60
2018-07-17T18:23:26.108Z,4.33
2018-07-17T18:25:55.149Z,4.10
2018-07-17T18:28:23.338Z,5.17
2018-07-17T18:30:51.545Z,5.27
2018-07-17T18:33:19.683Z,4.90
2018-07-17T18:35:47.851Z,4.70
2018-07-17T18:38:15.980Z,4.93
2018-07-17T18:40:44.119Z,4.70
2018-07-17T18:43:12.251Z,4.50
2018-07-17T18:45:40.367Z,4.53
2018-07-17T18:48:08.576Z,4.73
2018-07-17T18:50:36.691Z,4.33
2018-07-17T18:53:04.966Z,5.00
2018-07-17T18:55:33.207Z,4.43
2018-07-17T18:58:01.456Z,4.37
2018-07-17T19:00:29.600Z,4.13
2018-07-17T19:02:57.739Z,4.50
2018-07-17T19:05:25.860Z,4.20
2018-07-17T19:07:54.120Z,4.40
2018-07-17T19:10:22.280Z,4.47
2018-07-17T19:12:50.411Z,3.70
2018-07-17T19:15:18.531Z,3.87
2018-07-17T19:17:46.669Z,4.30
2018-07-17T19:20:14.873Z,4.30
2018-07-17T19:22:43.026Z,4.10
2018-07-17T19:25:11.307Z,4.10
2018-07-17T19:27:39.439Z,4.30
2018-07-17T19:30:07.601Z,4.30
2018-07-17T19:32:35.759Z,3.60
2018-07-17T19:35:04.115Z,4.13
2018-07-17T19:37:32.335Z,3.90
2018-07-17T19:40:00.468Z,4.17
2018-07-17T19:42:28.595Z,3.60
2018-07-17T19:44:56.728Z,3.53
2018-07-17T19:47:24.878Z,3.40
2018-07-17T19:49:52.980Z,3.20
2018-07-17T19:52:21.167Z,3.90
2018-07-17T19:54:49.426Z,3.10
2018-07-17T19:57:17.548Z,3.40
2018-07-17T19:59:45.698Z,3.67
2018-07-17T20:02:13.833Z,3.07
2018-07-17T20:04:42.277Z,3.90
2018-07-17T20:07:10.409Z,3.80
2018-07-17T20:09:38.547Z,3.27
2018-07-17T20:12:06.775Z,3.57
2018-07-17T20:14:35.210Z,4.10
2018-07-17T20:17:03.351Z,3.80
2018-07-17T20:19:31.474Z,4.20
2018-07-17T20:21:59.631Z,3.93
2018-07-17T20:24:27.930Z,4.03
2018-07-17T20:26:56.114Z,4.10
2018-07-17T20:29:24.274Z,3.50
2018-07-17T20:31:52.446Z,3.90
2018-07-17T20:34:20.631Z,3.63
2018-07-17T20:36:48.763Z,3.40
2018-07-17T20:39:16.904Z,3.40
2018-07-17T20:41:45.015Z,3.87
2018-07-17T20:44:13.131Z,3.40
2018-07-17T20:46:41.925Z,3.33
2018-07-17T20:49:10.019Z,3.57
2018-07-17T20:51:40.226Z,3.30
2018-07-17T20:54:08.367Z,3.70
2018-07-17T20:56:36.486Z,3.53
2018-07-17T20:59:04.703Z,3.80
2018-07-17T21:01:32.831Z,3.40
2018-07-17T21:04:00.951Z,3.40
2018-07-17T21:06:29.106Z,3.77
2018-07-17T21:08:57.612Z,3.53
2018-07-17T21:11:25.715Z,3.50
2018-07-17T21:13:54.127Z,3.53
2018-07-17T21:16:22.304Z,3.60
2018-07-17T21:18:50.535Z,3.60
2018-07-17T21:21:18.654Z,3.50
2018-07-17T21:23:46.796Z,3.53
2018-07-17T21:26:14.964Z,4.13
2018-07-17T21:28:43.286Z,4.20
2018-07-17T21:31:11.408Z,3.50
2018-07-17T21:33:40.355Z,3.83
2018-07-17T21:36:08.556Z,3.60
2018-07-17T21:38:37.095Z,4.00
2018-07-17T21:41:05.231Z,3.70
2018-07-17T21:43:33.364Z,3.93
2018-07-17T21:46:01.546Z,4.70
2018-07-17T21:48:29.667Z,5.20
2018-07-17T21:50:57.812Z,6.17
2018-07-17T21:53:25.958Z,6.63
2018-07-17T21:55:54.101Z,6.40
2018-07-17T21:58:22.267Z,5.50
2018-07-17T22:00:51.430Z,6.67
2018-07-17T22:03:19.570Z,6.20
2018-07-17T22:05:47.695Z,6.23
2018-07-17T22:08:15.823Z,6.17
2018-07-17T22:10:43.976Z,5.63
2018-07-17T22:13:12.123Z,6.23
2018-07-17T22:15:40.374Z,6.00
2018-07-17T22:18:08.526Z,5.57
2018-07-17T22:20:36.655Z,5.30
2018-07-17T22:23:04.999Z,5.70
2018-07-17T22:25:33.132Z,5.40
2018-07-17T22:28:01.255Z,4.87
2018-07-17T22:30:29.763Z,5.07
2018-07-17T22:32:57.896Z,4.87
2018-07-17T22:35:26.090Z,5.07
2018-07-17T22:37:54.215Z,5.07
2018-07-17T22:40:22.396Z,5.43
2018-07-17T22:42:50.503Z,5.23
2018-07-17T22:45:18.639Z,4.93
2018-07-17T22:47:46.746Z,5.20
2018-07-17T22:50:14.979Z,4.67
2018-07-17T22:52:43.221Z,5.67
2018-07-17T22:55:11.413Z,6.07
2018-07-17T22:57:39.584Z,5.13
2018-07-17T23:00:07.753Z,5.60
2018-07-17T23:02:35.863Z,5.80
2018-07-17T23:05:04.035Z,5.90
2018-07-17T23:07:32.156Z,5.70
2018-07-17T23:10:00.315Z,6.20
2018-07-17T23:12:28.436Z,5.83
2018-07-17T23:14:56.558Z,5.70
2018-07-17T23:17:24.694Z,5.87
2018-07-17T23:19:52.814Z,6.00
2018-07-17T23:22:29.631Z,5.70
2018-07-17T23:24:57.860Z,5.97
2018-07-17T23:27:25.982Z,5.80
2018-07-17T23:29:54.171Z,5.87
2018-07-17T23:32:22.282Z,6.40
2018-07-17T23:34:50.408Z,5.93
2018-07-17T23:37:18.528Z,5.90
2018-07-17T23:39:46.647Z,6.03
2018-07-17T23:42:14.762Z,5.67
2018-07-17T23:58:51.173Z,6.30
